Time;durP1;ratioP1;P1;durP2;ratioP2;P2;SDS_P1;SDS_P2;PMS_P1;PMS_P2;Temp;Humidity;BMP_temperature;BMP_pressure;BME280_temperature;BME280_humidity;BME280_pressure;Samples;Min_cycle;Max_cycle;Signal;HPM_P1;HPM_P2
2023/09/23 00:00:15;;;;;;;6.93;1.13;;;10.90;99.90;;;;;;5033580;28;20210;-77
2023/09/23 00:02:44;;;;;;;6.67;1.40;;;10.90;99.90;;;;;;5015953;28;20190;-78
2023/09/23 00:05:11;;;;;;;7.80;1.13;;;10.80;99.90;;;;;;5033575;28;20177;-78
2023/09/23 00:07:41;;;;;;;7.37;1.47;;;11.20;99.90;;;;;;5033531;28;20232;-77
2023/09/23 00:10:08;;;;;;;6.47;1.10;;;10.80;99.90;;;;;;5032801;28;20172;-78
2023/09/23 00:12:43;;;;;;;5.67;0.93;;;10.90;99.90;;;;;;5033533;28;20606;-79
2023/09/23 00:15:12;;;;;;;6.80;1.30;;;10.80;99.90;;;;;;5033545;28;20648;-77
2023/09/23 00:17:38;;;;;;;6.57;0.90;;;10.70;99.90;;;;;;5033349;28;20259;-78
2023/09/23 00:20:14;;;;;;;9.63;1.30;;;10.70;99.90;;;;;;5033306;28;20237;-78
2023/09/23 00:22:40;;;;;;;4.40;0.90;;;;;;;;;;5033292;28;20183;-77
2023/09/23 00:25:06;;;;;;;6.87;0.90;;;11.00;99.90;;;;;;5033231;28;20178;-78
2023/09/23 00:27:34;;;;;;;3.97;1.03;;;10.70;99.90;;;;;;5033158;28;20283;-78
2023/09/23 00:30:00;;;;;;;6.67;1.03;;;10.40;99.90;;;;;;5032966;28;20193;-78
2023/09/23 00:32:27;;;;;;;5.63;1.00;;;;;;;;;;5033250;28;20257;-78
2023/09/23 00:34:53;;;;;;;6.47;1.10;;;10.20;99.90;;;;;;5032829;28;20528;-77
2023/09/23 00:37:19;;;;;;;8.03;1.70;;;10.30;99.90;;;;;;4998853;28;20177;-77
2023/09/23 00:39:45;;;;;;;3.67;0.90;;;10.60;99.90;;;;;;5033107;28;20283;-80
2023/09/23 00:42:12;;;;;;;3.00;0.97;;;10.30;99.90;;;;;;5032994;28;20162;-79
2023/09/23 00:44:41;;;;;;;14.63;1.53;;;10.30;99.90;;;;;;5033016;28;20178;-80
2023/09/23 00:47:09;;;;;;;8.93;1.43;;;10.60;99.90;;;;;;5032942;28;20256;-77
2023/09/23 00:49:37;;;;;;;4.97;1.00;;;10.40;99.90;;;;;;5032729;28;20236;-78
2023/09/23 00:52:07;;;;;;;8.00;1.30;;;10.60;99.90;;;;;;5032808;28;20166;-80
2023/09/23 00:54:46;;;;;;;7.33;1.10;;;10.60;99.90;;;;;;5032641;28;20174;-78
2023/09/23 00:57:12;;;;;;;2.73;1.10;;;;;;;;;;5032774;28;20192;-78
2023/09/23 00:59:40;;;;;;;4.67;1.10;;;10.60;99.90;;;;;;5032220;28;20246;-77
2023/09/23 01:02:06;;;;;;;6.87;1.20;;;10.50;99.90;;;;;;5032643;28;20232;-78
2023/09/23 01:04:32;;;;;;;5.20;1.10;;;10.50;99.90;;;;;;5032413;28;20190;-79
2023/09/23 01:07:02;;;;;;;8.93;1.57;;;;;;;;;;5032505;28;20316;-79
2023/09/23 01:09:29;;;;;;;8.87;2.70;;;10.50;99.90;;;;;;5032462;28;20169;-78
2023/09/23 01:11:56;;;;;;;8.10;1.23;;;10.60;99.90;;;;;;5032349;28;20637;-79
2023/09/23 01:14:22;;;;;;;3.10;1.00;;;10.50;99.90;;;;;;5032150;28;20165;-77
2023/09/23 01:16:51;;;;;;;6.83;1.00;;;10.50;99.90;;;;;;5032182;28;20176;-77
2023/09/23 01:19:18;;;;;;;2.17;1.00;;;10.90;99.90;;;;;;5032128;28;20581;-77
2023/09/23 01:21:48;;;;;;;4.33;1.00;;;10.30;99.90;;;;;;5028980;28;20177;-78
2023/09/23 01:24:15;;;;;;;4.30;0.80;;;10.40;99.90;;;;;;5032099;28;20173;-78
2023/09/23 01:26:43;;;;;;;7.33;0.90;;;10.60;99.90;;;;;;5031936;28;20328;-78
2023/09/23 01:29:09;;;;;;;7.93;1.47;;;10.60;99.90;;;;;;5031909;28;20177;-78
2023/09/23 01:31:35;;;;;;;5.03;0.97;;;10.80;99.90;;;;;;5032073;28;20215;-78
2023/09/23 01:34:01;;;;;;;4.47;1.13;;;10.70;99.90;;;;;;5031958;28;20637;-77
2023/09/23 01:36:27;;;;;;;3.73;1.17;;;;;;;;;;5031930;28;20177;-78
2023/09/23 01:38:53;;;;;;;4.97;1.10;;;10.60;99.90;;;;;;5031855;28;20746;-77
2023/09/23 01:41:19;;;;;;;6.27;1.20;;;;;;;;;;5031713;28;20174;-77
2023/09/23 01:43:45;;;;;;;6.23;1.10;;;;;;;;;;5013914;28;20174;-78
2023/09/23 01:46:10;;;;;;;3.17;0.87;;;10.60;99.90;;;;;;5031809;28;20182;-77
2023/09/23 01:48:38;;;;;;;4.33;0.90;;;;;;;;;;5031640;28;20216;-79
2023/09/23 01:51:06;;;;;;;10.23;1.17;;;;;;;;;;5031683;28;20174;-80
2023/09/23 01:53:32;;;;;;;5.17;1.20;;;10.70;99.90;;;;;;5013865;28;20185;-78
2023/09/23 01:55:58;;;;;;;5.27;0.90;;;;;;;;;;5031639;28;20193;-77
2023/09/23 01:58:24;;;;;;;5.30;1.03;;;;;;;;;;5031328;28;20626;-79
2023/09/23 02:00:54;;;;;;;5.13;1.03;;;10.60;99.90;;;;;;5013740;28;20185;-77
2023/09/23 02:03:22;;;;;;;5.37;1.27;;;10.60;99.90;;;;;;5031360;28;20185;-80
2023/09/23 02:05:48;;;;;;;5.10;0.90;;;10.80;99.90;;;;;;5031542;28;20258;-79
2023/09/23 02:08:15;;;;;;;5.47;1.07;;;11.00;99.90;;;;;;5031489;28;20664;-80
2023/09/23 02:10:44;;;;;;;4.30;1.20;;;10.80;99.90;;;;;;5031277;28;20178;-79
2023/09/23 02:13:10;;;;;;;7.70;1.67;;;;;;;;;;5031413;28;20177;-78
2023/09/23 02:15:36;;;;;;;5.43;1.20;;;11.20;99.90;;;;;;5031313;28;20177;-81
2023/09/23 02:18:04;;;;;;;5.60;1.20;;;10.70;99.90;;;;;;5031264;28;20651;-79
2023/09/23 02:20:29;;;;;;;4.87;1.00;;;10.70;99.90;;;;;;5013315;28;20680;-78
2023/09/23 02:22:55;;;;;;;3.70;1.00;;;10.70;99.90;;;;;;5031224;28;20269;-79
2023/09/23 02:25:24;;;;;;;6.50;1.00;;;10.40;99.90;;;;;;5031175;28;20174;-78
2023/09/23 02:27:51;;;;;;;9.97;0.90;;;10.90;99.90;;;;;;5013313;28;20221;-78
2023/09/23 02:30:16;;;;;;;6.17;1.13;;;10.70;99.90;;;;;;5030876;28;20162;-78
2023/09/23 02:32:46;;;;;;;4.07;0.90;;;10.60;99.90;;;;;;5030579;28;20169;-78
2023/09/23 02:35:15;;;;;;;8.57;1.20;;;10.60;99.90;;;;;;5031005;28;20169;-77
2023/09/23 02:37:45;;;;;;;5.77;1.30;;;10.60;99.90;;;;;;5030929;28;20190;-78
2023/09/23 02:40:12;;;;;;;6.47;1.20;;;;;;;;;;5013739;28;20213;-79
2023/09/23 02:42:45;;;;;;;4.70;1.10;;;10.40;99.90;;;;;;5030895;28;20166;-79
2023/09/23 02:45:13;;;;;;;5.37;1.13;;;10.80;99.90;;;;;;5013025;28;20261;-78
2023/09/23 02:47:41;;;;;;;2.57;0.80;;;10.90;99.90;;;;;;5030784;28;20178;-80
2023/09/23 02:50:09;;;;;;;7.47;0.90;;;;;;;;;;5030852;28;20182;-81
2023/09/23 02:52:36;;;;;;;8.17;1.27;;;10.70;99.90;;;;;;5030846;28;20166;-78
2023/09/23 02:55:03;;;;;;;8.00;1.40;;;;;;;;;;5030809;28;20202;-78
2023/09/23 02:57:30;;;;;;;3.63;0.90;;;;;;;;;;5030778;28;20185;-77
2023/09/23 02:59:57;;;;;;;5.80;1.00;;;;;;;;;;5012646;28;20228;-78
2023/09/23 03:02:27;;;;;;;3.17;1.00;;;10.60;99.90;;;;;;5030661;28;20179;-77
2023/09/23 03:04:58;;;;;;;2.87;0.73;;;10.80;99.90;;;;;;5012850;28;20201;-77
2023/09/23 03:07:33;;;;;;;5.50;1.10;;;10.70;99.90;;;;;;5030685;28;20853;-81
2023/09/23 03:10:01;;;;;;;5.07;1.00;;;;;;;;;;5030840;28;20344;-80
2023/09/23 03:12:29;;;;;;;6.13;1.37;;;10.50;99.90;;;;;;5030728;28;20285;-80
2023/09/23 03:14:56;;;;;;;8.43;0.83;;;10.60;99.90;;;;;;5030714;28;20649;-82
2023/09/23 03:17:22;;;;;;;4.40;0.90;;;10.70;99.90;;;;;;5030599;28;20272;-77
2023/09/23 03:19:51;;;;;;;5.77;1.00;;;10.60;99.90;;;;;;5030506;28;20292;-77
2023/09/23 03:22:21;;;;;;;2.67;0.93;;;;;;;;;;5010882;28;20178;-77
2023/09/23 03:24:48;;;;;;;5.47;0.90;;;10.40;99.90;;;;;;5030176;28;20170;-77
2023/09/23 03:27:14;;;;;;;4.47;1.17;;;10.50;99.90;;;;;;5030421;28;20229;-80
2023/09/23 03:29:41;;;;;;;6.17;1.40;;;;;;;;;;5030358;28;20221;-81
2023/09/23 03:32:07;;;;;;;4.70;1.10;;;;;;;;;;5030620;28;20188;-80
2023/09/23 03:34:37;;;;;;;10.53;1.30;;;;;;;;;;5030432;28;20173;-78
2023/09/23 03:37:04;;;;;;;6.60;1.20;;;;;;;;;;5030486;28;20186;-78
2023/09/23 03:39:30;;;;;;;6.83;1.30;;;10.20;99.90;;;;;;5030324;28;20263;-77
2023/09/23 03:41:56;;;;;;;5.83;1.10;;;10.40;99.90;;;;;;5030326;28;20206;-77
2023/09/23 03:44:22;;;;;;;4.43;0.97;;;;;;;;;;5012548;28;20715;-77
2023/09/23 03:46:50;;;;;;;6.47;1.20;;;10.10;99.90;;;;;;5034059;28;20261;-78
2023/09/23 03:49:17;;;;;;;8.00;1.00;;;10.00;99.90;;;;;;5033915;28;20193;-77
2023/09/23 03:51:44;;;;;;;4.50;1.40;;;10.10;99.90;;;;;;5033895;28;20201;-77
2023/09/23 03:54:10;;;;;;;4.50;1.00;;;10.00;99.90;;;;;;5033889;28;20178;-79
2023/09/23 03:56:36;;;;;;;6.13;1.20;;;;;;;;;;5033780;28;20200;-79
2023/09/23 03:59:05;;;;;;;9.77;1.47;;;9.90;99.90;;;;;;5015623;28;20213;-78
2023/09/23 04:01:32;;;;;;;7.87;1.13;;;9.80;99.90;;;;;;5033577;28;20166;-78
2023/09/23 04:03:58;;;;;;;3.60;1.17;;;;;;;;;;5015810;28;20181;-79
2023/09/23 04:06:25;;;;;;;6.33;1.23;;;;;;;;;;5033782;28;20173;-78
2023/09/23 04:08:52;;;;;;;5.70;1.43;;;;;;;;;;5033730;28;20170;-79
2023/09/23 04:11:18;;;;;;;5.63;1.10;;;;;;;;;;5033563;28;20523;-80
2023/09/23 04:13:47;;;;;;;6.47;1.03;;;;;;;;;;5033400;28;20197;-80
2023/09/23 04:16:13;;;;;;;5.40;1.10;;;;;;;;;;5033490;28;20530;-77
2023/09/23 04:18:40;;;;;;;7.23;1.10;;;10.00;99.90;;;;;;5033070;28;20178;-77
2023/09/23 04:21:08;;;;;;;4.77;1.13;;;;;;;;;;5033470;28;20185;-80
2023/09/23 04:23:34;;;;;;;9.27;1.10;;;10.40;99.90;;;;;;5033252;28;20206;-78
2023/09/23 04:26:02;;;;;;;5.37;1.20;;;10.50;99.90;;;;;;5033241;28;20265;-78
2023/09/23 04:28:28;;;;;;;4.73;1.03;;;10.10;99.90;;;;;;5033173;28;20637;-78
2023/09/23 04:30:54;;;;;;;6.90;1.60;;;10.10;99.90;;;;;;5015700;28;20239;-78
2023/09/23 04:33:21;;;;;;;3.07;0.73;;;;;;;;;;5033190;28;20193;-77
2023/09/23 04:35:55;;;;;;;4.37;1.10;;;;;;;;;;5033110;28;20170;-81
2023/09/23 04:38:20;;;;;;;11.73;1.37;;;10.10;99.90;;;;;;5033076;28;20174;-78
2023/09/23 04:40:47;;;;;;;4.23;1.20;;;10.00;99.90;;;;;;5032896;28;20611;-79
2023/09/23 04:43:12;;;;;;;6.23;1.33;;;9.90;99.90;;;;;;5033057;28;20201;-79
2023/09/23 04:45:38;;;;;;;6.03;1.20;;;;;;;;;;5033009;28;20636;-81
2023/09/23 04:48:06;;;;;;;7.27;1.30;;;10.00;99.90;;;;;;5032894;28;20174;-80
2023/09/23 04:50:32;;;;;;;5.67;1.00;;;9.70;99.90;;;;;;5032948;28;20906;-78
2023/09/23 04:52:59;;;;;;;8.87;0.93;;;9.90;99.90;;;;;;5032806;28;20166;-78
2023/09/23 04:55:29;;;;;;;3.67;1.03;;;10.00;99.90;;;;;;5015229;28;20181;-78
2023/09/23 04:57:55;;;;;;;4.07;1.10;;;;;;;;;;5032652;28;20170;-80
2023/09/23 05:00:21;;;;;;;8.67;1.27;;;9.70;99.90;;;;;;5032357;28;20902;-78
2023/09/23 05:02:51;;;;;;;5.63;1.20;;;;;;;;;;5014873;28;20197;-80
2023/09/23 05:05:18;;;;;;;6.73;1.27;;;9.60;99.90;;;;;;5032591;28;20272;-78
2023/09/23 05:07:44;;;;;;;5.00;1.70;;;;;;;;;;5032540;28;20223;-78
2023/09/23 05:10:12;;;;;;;8.13;1.50;;;;;;;;;;5032563;28;20174;-78
2023/09/23 05:12:40;;;;;;;5.93;1.33;;;9.80;99.90;;;;;;5032374;28;20497;-78
2023/09/23 05:15:06;;;;;;;5.37;1.10;;;9.40;99.90;;;;;;5032327;28;20174;-80
2023/09/23 05:17:33;;;;;;;6.20;1.10;;;9.10;99.90;;;;;;5032240;28;20198;-80
2023/09/23 05:19:59;;;;;;;5.40;1.07;;;;;;;;;;5032205;28;20299;-78
2023/09/23 05:22:25;;;;;;;3.97;1.17;;;9.30;99.90;;;;;;5032302;28;20166;-78
2023/09/23 05:24:56;;;;;;;9.13;1.03;;;9.20;99.90;;;;;;5014386;28;20173;-79
2023/09/23 05:27:22;;;;;;;7.23;1.60;;;9.20;99.90;;;;;;5029837;28;20218;-78
2023/09/23 05:29:50;;;;;;;5.57;1.57;;;;;;;;;;5031780;28;20203;-80
2023/09/23 05:32:16;;;;;;;4.43;1.03;;;9.10;99.90;;;;;;5031948;28;20308;-78
2023/09/23 05:34:42;;;;;;;5.80;1.30;;;9.10;99.90;;;;;;5031886;28;20213;-78
2023/09/23 05:37:11;;;;;;;5.37;1.23;;;9.10;99.90;;;;;;5031824;28;20538;-79
2023/09/23 05:39:37;;;;;;;4.57;1.33;;;;;;;;;;5031618;28;20210;-79
2023/09/23 05:42:04;;;;;;;5.47;1.33;;;;;;;;;;5031578;28;20277;-78
2023/09/23 05:44:29;;;;;;;4.73;1.20;;;9.20;99.90;;;;;;5031601;28;20174;-77
2023/09/23 05:46:55;;;;;;;8.37;1.50;;;9.00;99.90;;;;;;5031538;28;20178;-76
2023/09/23 05:49:21;;;;;;;6.20;1.37;;;9.00;99.90;;;;;;5031812;28;20181;-79
2023/09/23 05:51:47;;;;;;;2.93;1.03;;;8.80;99.90;;;;;;5014012;28;20178;-79
2023/09/23 05:54:13;;;;;;;6.67;1.47;;;9.00;99.90;;;;;;5031509;28;20183;-77
2023/09/23 05:56:39;;;;;;;4.90;1.30;;;;;;;;;;5031518;28;20261;-77
2023/09/23 05:59:08;;;;;;;4.07;1.03;;;8.90;99.90;;;;;;5031250;28;20210;-78
2023/09/23 06:01:35;;;;;;;5.00;1.40;;;8.80;99.90;;;;;;5031496;28;20260;-78
2023/09/23 06:04:03;;;;;;;4.63;1.53;;;8.90;99.90;;;;;;5031333;28;20227;-79
2023/09/23 06:06:29;;;;;;;4.57;1.30;;;8.80;99.90;;;;;;5031363;28;20176;-77
2023/09/23 06:08:56;;;;;;;5.87;1.20;;;9.20;99.90;;;;;;5030800;28;20617;-79
2023/09/23 06:11:22;;;;;;;3.97;1.30;;;9.20;99.90;;;;;;5031547;28;20181;-78
2023/09/23 06:13:47;;;;;;;6.30;1.40;;;9.10;99.90;;;;;;5031671;28;20653;-78
2023/09/23 06:16:13;;;;;;;7.50;1.30;;;8.90;99.90;;;;;;5031190;28;20265;-77
2023/09/23 06:18:38;;;;;;;7.97;1.27;;;9.20;99.90;;;;;;5013442;28;20632;-78
2023/09/23 06:21:06;;;;;;;8.07;1.50;;;8.70;99.90;;;;;;5033423;28;20173;-81
2023/09/23 06:23:32;;;;;;;4.40;1.30;;;8.90;99.90;;;;;;5032930;28;20177;-82
2023/09/23 06:26:01;;;;;;;5.43;1.40;;;8.90;99.90;;;;;;5032907;28;20174;-80
2023/09/23 06:28:27;;;;;;;6.37;1.20;;;9.10;99.90;;;;;;5033064;28;20253;-80
2023/09/23 06:30:53;;;;;;;7.87;1.57;;;9.00;99.90;;;;;;5032893;28;20177;-81
2023/09/23 06:33:19;;;;;;;7.50;1.57;;;8.90;99.90;;;;;;5031998;28;20193;-79
2023/09/23 06:35:45;;;;;;;8.90;1.67;;;9.50;99.90;;;;;;5031689;28;20208;-81
2023/09/23 06:40:46;;;;;;;3.30;1.10;;;9.30;99.90;;;;;;4532282;23;20730;-77
2023/09/23 06:43:12;;;;;;;3.60;1.30;;;;;;;;;;4990439;28;20237;-74
2023/09/23 06:45:39;;;;;;;5.07;1.40;;;;;;;;;;4989567;28;20183;-77
2023/09/23 06:48:05;;;;;;;8.73;1.60;;;9.30;99.90;;;;;;4990359;28;20540;-75
2023/09/23 06:50:31;;;;;;;6.20;1.50;;;9.40;99.90;;;;;;4991821;28;20202;-75
2023/09/23 06:52:57;;;;;;;5.90;1.30;;;9.60;99.90;;;;;;4991631;28;20199;-75
2023/09/23 06:55:23;;;;;;;5.30;1.50;;;;;;;;;;4991694;28;20237;-75
2023/09/23 06:57:48;;;;;;;7.10;1.87;;;9.20;99.90;;;;;;4991580;28;20237;-77
2023/09/23 07:00:14;;;;;;;5.27;1.53;;;9.60;99.90;;;;;;4991470;28;20574;-74
2023/09/23 07:02:40;;;;;;;5.67;1.30;;;9.40;99.90;;;;;;4991617;28;20594;-77
2023/09/23 07:05:06;;;;;;;8.97;1.70;;;9.70;99.90;;;;;;4991495;28;20177;-78
2023/09/23 07:07:32;;;;;;;10.57;1.67;;;;;;;;;;4991597;28;20254;-75
2023/09/23 07:09:57;;;;;;;5.23;1.43;;;9.70;99.90;;;;;;4990168;28;20347;-75
2023/09/23 07:12:23;;;;;;;8.77;1.90;;;;;;;;;;4990106;28;20186;-75
2023/09/23 07:14:49;;;;;;;8.43;1.60;;;9.50;99.90;;;;;;4991490;28;20182;-78
2023/09/23 07:17:15;;;;;;;3.93;1.27;;;;;;;;;;4991334;28;20257;-77
2023/09/23 07:19:41;;;;;;;6.93;1.40;;;9.70;99.90;;;;;;4991975;28;20310;-77
2023/09/23 07:22:07;;;;;;;5.43;1.47;;;;;;;;;;4995244;28;20255;-77
2023/09/23 07:24:35;;;;;;;6.43;1.40;;;10.10;99.90;;;;;;4995285;28;20638;-77
2023/09/23 07:27:01;;;;;;;3.97;1.07;;;10.10;99.90;;;;;;4995180;28;20179;-77
2023/09/23 07:29:27;;;;;;;6.43;1.60;;;10.20;99.90;;;;;;4993751;28;20378;-75
2023/09/23 07:31:53;;;;;;;5.70;1.60;;;10.50;99.90;;;;;;4995028;28;20637;-75
2023/09/23 07:34:19;;;;;;;4.67;1.23;;;10.20;99.90;;;;;;4993703;28;20195;-75
2023/09/23 07:36:46;;;;;;;7.23;1.90;;;10.30;99.90;;;;;;4993593;28;20183;-77
2023/09/23 07:39:12;;;;;;;8.87;1.63;;;10.40;99.90;;;;;;4994804;28;20307;-75
2023/09/23 07:41:37;;;;;;;9.53;1.60;;;10.50;99.90;;;;;;4994538;28;20211;-75
2023/09/23 07:44:03;;;;;;;6.63;2.00;;;10.20;99.90;;;;;;4994727;28;20187;-75
2023/09/23 07:46:29;;;;;;;7.90;1.80;;;10.70;99.90;;;;;;4994884;28;20168;-75
2023/09/23 07:48:55;;;;;;;7.73;1.80;;;;;;;;;;4994823;28;20180;-78
2023/09/23 07:51:21;;;;;;;4.97;1.53;;;10.60;99.90;;;;;;4994754;28;20656;-78
2023/09/23 07:53:47;;;;;;;8.17;1.67;;;10.90;99.90;;;;;;4994695;28;20171;-74
2023/09/23 07:56:12;;;;;;;9.70;1.63;;;10.90;99.90;;;;;;4994541;28;20716;-77
2023/09/23 07:58:38;;;;;;;7.57;1.77;;;11.10;99.90;;;;;;4994614;28;20178;-75
2023/09/23 08:01:04;;;;;;;8.47;1.97;;;11.20;99.90;;;;;;4994622;28;20657;-78
2023/09/23 08:03:29;;;;;;;5.87;1.33;;;11.40;99.90;;;;;;4994761;28;20171;-78
2023/09/23 08:05:55;;;;;;;7.60;1.77;;;11.40;99.90;;;;;;4994851;28;20181;-78
2023/09/23 08:08:21;;;;;;;10.80;1.63;;;11.80;99.90;;;;;;4992939;28;20597;-78
2023/09/23 08:10:49;;;;;;;9.20;1.70;;;11.90;99.90;;;;;;4994479;28;20661;-77
2023/09/23 08:13:20;;;;;;;6.23;1.60;;;11.90;99.90;;;;;;4994477;28;20178;-78
2023/09/23 08:15:46;;;;;;;20.17;1.60;;;12.20;99.90;;;;;;4992984;28;20222;-78
2023/09/23 08:18:15;;;;;;;15.87;2.17;;;12.10;99.90;;;;;;4994303;28;20183;-74
2023/09/23 08:20:40;;;;;;;8.50;2.10;;;12.30;99.90;;;;;;4994116;28;20219;-77
2023/09/23 08:23:06;;;;;;;8.00;1.60;;;12.70;99.90;;;;;;4994078;28;20646;-77
2023/09/23 08:25:33;;;;;;;10.33;2.00;;;12.60;99.90;;;;;;4994056;28;20233;-77
2023/09/23 08:27:59;;;;;;;9.07;1.80;;;12.80;99.90;;;;;;4994455;28;20171;-77
2023/09/23 08:30:25;;;;;;;10.43;2.20;;;13.40;99.90;;;;;;4976359;28;20176;-78
2023/09/23 08:32:51;;;;;;;6.27;1.80;;;13.90;99.90;;;;;;4994118;28;20176;-77
2023/09/23 08:35:17;;;;;;;11.10;1.70;;;13.50;99.90;;;;;;4993264;28;20214;-77
2023/09/23 08:37:45;;;;;;;11.93;1.80;;;;;;;;;;4993934;28;20206;-76
2023/09/23 08:40:12;;;;;;;10.50;2.10;;;14.40;99.90;;;;;;4994650;28;20235;-77
2023/09/23 08:42:38;;;;;;;9.63;1.95;;;14.70;99.90;;;;;;4994171;28;20254;-77
2023/09/23 08:45:08;;;;;;;14.35;2.03;;;14.60;99.90;;;;;;4991584;28;20753;-78
2023/09/23 08:47:36;;;;;;;12.95;2.28;;;14.80;99.90;;;;;;4993538;28;20793;-77
2023/09/23 08:50:03;;;;;;;12.23;2.30;;;14.80;99.90;;;;;;4993686;28;20171;-76
2023/09/23 08:52:31;;;;;;;13.45;1.92;;;14.70;99.90;;;;;;4993507;28;20206;-76
2023/09/23 08:54:57;;;;;;;11.25;2.05;;;14.90;99.90;;;;;;4993303;28;20167;-77
2023/09/23 08:57:23;;;;;;;9.73;1.83;;;14.80;99.90;;;;;;4993267;28;20242;-77
2023/09/23 08:59:48;;;;;;;8.98;2.03;;;14.90;99.90;;;;;;4993016;28;20242;-77
2023/09/23 09:02:22;;;;;;;9.05;1.73;;;15.20;99.90;;;;;;4993490;28;20222;-77
2023/09/23 09:04:47;;;;;;;8.65;2.22;;;15.00;99.90;;;;;;4973763;28;20183;-77
2023/09/23 09:07:13;;;;;;;13.13;2.08;;;15.00;99.90;;;;;;4973959;28;20180;-77
2023/09/23 09:09:40;;;;;;;5.30;1.50;;;15.20;99.90;;;;;;4973658;28;20178;-78
2023/09/23 09:12:06;;;;;;;12.73;1.85;;;15.10;99.90;;;;;;4973737;28;20167;-77
2023/09/23 09:14:33;;;;;;;10.95;2.33;;;15.00;99.90;;;;;;4973624;28;20172;-76
2023/09/23 09:16:58;;;;;;;8.30;1.52;;;14.90;99.90;;;;;;4973465;28;20194;-77
2023/09/23 09:19:24;;;;;;;9.45;2.05;;;14.80;99.90;;;;;;4973478;28;20628;-77
2023/09/23 09:21:50;;;;;;;14.65;2.13;;;14.80;99.90;;;;;;4973497;28;20638;-77
2023/09/23 09:24:17;;;;;;;12.70;1.85;;;14.90;99.90;;;;;;4974111;28;20183;-78
2023/09/23 09:26:44;;;;;;;14.90;2.03;;;15.20;99.90;;;;;;4972808;28;20180;-77
2023/09/23 09:29:10;;;;;;;9.80;1.83;;;15.30;99.90;;;;;;4973899;28;20291;-78
2023/09/23 09:31:38;;;;;;;11.35;2.05;;;15.30;99.90;;;;;;4973676;28;20168;-77
2023/09/23 09:34:11;;;;;;;13.45;2.15;;;15.70;99.90;;;;;;4973731;28;20259;-78
2023/09/23 09:36:39;;;;;;;8.50;1.88;;;15.80;99.90;;;;;;4972156;28;20581;-77
2023/09/23 09:39:07;;;;;;;6.93;1.75;;;15.80;99.90;;;;;;4974920;28;20290;-77
2023/09/23 09:41:54;;;;;;;10.38;1.88;;;16.00;99.90;;;;;;4991249;28;20233;-78
2023/09/23 09:44:23;;;;;;;10.07;2.30;;;15.90;99.90;;;;;;4992121;28;20171;-78
2023/09/23 09:46:51;;;;;;;5.70;1.58;;;16.30;99.90;;;;;;4992868;28;20268;-78
2023/09/23 09:49:17;;;;;;;9.82;2.00;;;15.60;99.90;;;;;;4993240;28;20173;-78
2023/09/23 09:51:46;;;;;;;11.93;1.77;;;15.80;99.90;;;;;;4991565;28;20175;-78
2023/09/23 09:54:13;;;;;;;11.85;1.63;;;15.90;99.90;;;;;;4992493;28;20708;-77
2023/09/23 09:56:40;;;;;;;12.75;2.08;;;;;;;;;;4992365;28;20183;-78
2023/09/23 09:59:06;;;;;;;12.75;2.00;;;16.50;1.00;;;;;;4992221;28;20211;-77
2023/09/23 10:01:34;;;;;;;6.15;1.50;;;16.30;1.00;;;;;;4992515;28;20716;-78
2023/09/23 10:04:07;;;;;;;8.18;1.63;;;16.20;99.90;;;;;;4992356;28;20163;-78
2023/09/23 10:06:39;;;;;;;8.38;1.60;;;16.40;78.30;;;;;;4992350;28;20266;-78
2023/09/23 10:09:14;;;;;;;8.60;1.85;;;16.60;99.90;;;;;;4990999;28;20175;-78
2023/09/23 10:11:40;;;;;;;9.02;2.20;;;16.80;1.00;;;;;;4991123;28;20170;-78
2023/09/23 10:14:16;;;;;;;10.07;1.75;;;18.10;99.90;;;;;;4992396;28;20163;-78
2023/09/23 10:16:48;;;;;;;11.05;2.22;;;17.70;1.00;;;;;;4992141;28;20175;-78
2023/09/23 10:19:15;;;;;;;7.28;2.00;;;20.90;99.90;;;;;;4992238;28;20294;-77
2023/09/23 10:21:44;;;;;;;4.78;1.58;;;20.80;80.70;;;;;;4992192;28;20179;-77
2023/09/23 10:24:18;;;;;;;7.45;1.85;;;18.90;1.00;;;;;;4991969;28;20232;-77
2023/09/23 10:26:45;;;;;;;10.65;2.10;;;;;;;;;;4990899;28;20214;-76
2023/09/23 10:29:11;;;;;;;10.73;2.08;;;;;;;;;;4991907;28;20183;-76
2023/09/23 10:31:38;;;;;;;7.50;1.88;;;19.00;99.90;;;;;;4991653;28;20656;-75
2023/09/23 10:34:05;;;;;;;7.70;2.13;;;18.70;18.50;;;;;;4991948;28;20183;-76
2023/09/23 10:36:30;;;;;;;8.27;1.98;;;18.70;1.00;;;;;;4991760;28;20171;-76
2023/09/23 10:38:57;;;;;;;8.38;2.10;;;18.60;1.00;;;;;;4991782;28;20298;-77
2023/09/23 10:41:34;;;;;;;8.32;2.30;;;18.80;1.00;;;;;;4991726;28;20716;-75
2023/09/23 10:44:02;;;;;;;8.65;1.67;;;18.90;1.00;;;;;;4991869;28;20175;-76
2023/09/23 10:46:29;;;;;;;4.28;1.55;;;18.90;1.00;;;;;;4991970;28;20313;-77
2023/09/23 10:48:54;;;;;;;8.30;1.80;;;18.70;99.90;;;;;;4990331;28;20167;-77
2023/09/23 10:51:21;;;;;;;6.05;2.03;;;19.20;99.90;;;;;;4991812;28;20415;-77
2023/09/23 10:53:49;;;;;;;10.13;2.10;;;19.50;99.90;;;;;;4992523;28;20179;-77
2023/09/23 10:56:16;;;;;;;6.32;1.80;;;19.40;99.90;;;;;;4995841;28;20241;-77
2023/09/23 10:58:42;;;;;;;8.32;1.90;;;18.80;99.90;;;;;;4995489;28;20641;-76
2023/09/23 11:01:07;;;;;;;8.23;1.58;;;18.50;38.50;;;;;;4995709;28;20171;-77
2023/09/23 11:03:40;;;;;;;11.70;2.05;;;18.20;19.50;;;;;;4995684;28;20689;-76
2023/09/23 11:06:08;;;;;;;7.45;1.80;;;20.20;99.90;;;;;;4995528;28;20251;-77
2023/09/23 11:08:36;;;;;;;6.97;1.67;;;20.90;99.90;;;;;;4995759;28;20175;-77
2023/09/23 11:11:02;;;;;;;10.68;2.20;;;20.80;99.90;;;;;;4995557;28;20657;-77
2023/09/23 11:13:27;;;;;;;7.60;2.17;;;21.30;99.90;;;;;;4995550;28;20186;-76
2023/09/23 11:15:53;;;;;;;8.88;2.25;;;20.80;99.40;;;;;;4995610;28;20179;-77
2023/09/23 11:18:18;;;;;;;8.93;2.25;;;20.60;1.00;;;;;;4995340;28;20641;-77
2023/09/23 11:20:47;;;;;;;9.13;2.33;;;19.60;1.00;;;;;;4995228;28;20203;-78
2023/09/23 11:23:14;;;;;;;8.00;2.08;;;19.10;1.00;;;;;;4995102;28;20171;-77
2023/09/23 11:25:41;;;;;;;6.72;1.70;;;18.60;1.00;;;;;;4994099;28;20179;-77
2023/09/23 11:28:17;;;;;;;7.38;1.92;;;18.10;1.00;;;;;;4994957;28;20167;-77
2023/09/23 11:30:42;;;;;;;8.13;2.30;;;17.50;99.90;;;;;;4994998;28;20653;-77
2023/09/23 11:33:11;;;;;;;8.50;2.08;;;17.40;1.00;;;;;;4993784;28;20241;-77
2023/09/23 11:35:37;;;;;;;7.60;1.52;;;17.00;1.00;;;;;;4994903;28;20246;-77
2023/09/23 11:38:03;;;;;;;7.88;1.88;;;16.90;1.00;;;;;;4995093;28;20262;-78
2023/09/23 11:40:31;;;;;;;8.18;1.77;;;14.40;99.90;;;;;;4994824;28;20233;-77
2023/09/23 11:42:57;;;;;;;8.40;1.63;;;16.70;99.90;;;;;;4994980;28;20222;-76
2023/09/23 11:45:23;;;;;;;12.15;2.13;;;16.60;99.90;;;;;;4994701;28;20171;-76
2023/09/23 11:47:49;;;;;;;9.43;1.80;;;16.50;1.00;;;;;;4992515;28;20175;-76
2023/09/23 11:50:15;;;;;;;12.25;2.38;;;16.50;99.90;;;;;;4994707;28;20770;-76
2023/09/23 11:52:41;;;;;;;10.93;2.22;;;19.30;1.00;;;;;;4994557;28;20654;-76
2023/09/23 11:55:10;;;;;;;7.18;1.58;;;16.50;99.90;;;;;;4994748;28;20195;-76
2023/09/23 11:57:36;;;;;;;6.07;1.80;;;16.60;1.00;;;;;;4994654;28;20168;-78
2023/09/23 12:00:03;;;;;;;12.25;2.40;;;16.70;1.00;;;;;;4994244;28;20318;-78
2023/09/23 12:02:30;;;;;;;12.80;2.33;;;16.70;1.00;;;;;;4994574;28;20171;-78
2023/09/23 12:04:56;;;;;;;8.57;2.08;;;16.50;1.00;;;;;;4994285;28;20195;-78
2023/09/23 12:07:23;;;;;;;11.73;2.03;;;16.60;1.00;;;;;;4993920;28;20630;-77
2023/09/23 12:09:49;;;;;;;8.27;1.90;;;16.70;99.90;;;;;;4994542;28;20199;-77
2023/09/23 12:12:15;;;;;;;12.70;2.20;;;16.60;99.90;;;;;;4994164;28;20176;-78
2023/09/23 12:14:42;;;;;;;6.53;1.95;;;16.80;1.00;;;;;;4994201;28;20187;-77
2023/09/23 12:17:10;;;;;;;11.05;1.77;;;16.60;99.90;;;;;;4994262;28;20637;-78
2023/09/23 12:19:36;;;;;;;8.25;1.77;;;16.70;99.90;;;;;;4994230;28;20207;-77
2023/09/23 12:22:01;;;;;;;9.35;1.90;;;17.00;99.90;;;;;;4992900;28;20178;-77
2023/09/23 12:24:27;;;;;;;6.40;1.50;;;19.00;1.00;;;;;;4994152;28;20182;-77
2023/09/23 12:26:53;;;;;;;6.57;1.83;;;19.10;1.00;;;;;;4994187;28;20622;-77
2023/09/23 12:29:18;;;;;;;9.35;2.28;;;23.00;99.90;;;;;;4994081;28;20187;-78
2023/09/23 12:31:44;;;;;;;8.20;1.80;;;22.90;99.90;;;;;;4992881;28;20221;-78
2023/09/23 12:34:09;;;;;;;8.07;2.38;;;24.00;60.30;;;;;;4994154;28;20214;-77
2023/09/23 12:36:35;;;;;;;6.68;1.95;;;24.60;99.90;;;;;;4993965;28;20221;-78
2023/09/23 12:39:01;;;;;;;5.38;1.77;;;25.00;99.90;;;;;;4993961;28;20175;-77
2023/09/23 12:41:26;;;;;;;10.20;2.10;;;23.40;99.90;;;;;;4993847;28;20230;-77
2023/09/23 12:43:53;;;;;;;5.63;1.90;;;22.70;99.90;;;;;;4993887;28;20175;-77
2023/09/23 12:46:18;;;;;;;5.20;1.85;;;23.30;99.90;;;;;;4993820;28;20187;-77
2023/09/23 12:48:44;;;;;;;6.35;1.80;;;23.70;89.70;;;;;;4993529;28;20660;-78
2023/09/23 12:51:11;;;;;;;5.40;1.83;;;24.00;1.00;;;;;;4993939;28;20287;-78
2023/09/23 12:53:37;;;;;;;3.72;1.50;;;23.60;99.90;;;;;;4993655;28;20180;-77
2023/09/23 12:56:04;;;;;;;4.45;1.98;;;23.70;99.90;;;;;;4993641;28;20649;-77
2023/09/23 12:58:29;;;;;;;5.82;1.75;;;24.50;99.90;;;;;;4993677;28;20183;-77
2023/09/23 13:00:55;;;;;;;4.97;1.90;;;25.20;99.90;;;;;;4993436;28;20222;-77
2023/09/23 13:03:20;;;;;;;7.22;2.08;;;24.80;99.90;;;;;;4993563;28;20182;-77
2023/09/23 13:05:46;;;;;;;5.07;1.77;;;24.10;99.90;;;;;;4993577;28;20179;-77